Time;durP1;ratioP1;P1;durP2;ratioP2;P2;SDS_P1;SDS_P2;PMS_P1;PMS_P2;Temp;Humidity;BMP_temperature;BMP_pressure;BME280_temperature;BME280_humidity;BME280_pressure;Samples;Min_cycle;Max_cycle;Signal;HPM_P1;HPM_P2
2021/09/21 00:01:01;;;;;;;;;;;;;;;20.50;58.05;100749.69;5165826;27;806;-53
2021/09/21 00:03:26;;;;;;;;;;;;;;;20.75;58.11;100763.41;5158138;27;1980;-54
2021/09/21 00:05:51;;;;;;;;;;;;;;;20.98;58.26;100753.34;5158121;27;778;-51
2021/09/21 00:08:17;;;;;;;;;;;;;;;21.15;58.29;100756.34;5156943;27;961;-55
2021/09/21 00:10:42;;;;;;;;;;;;;;;21.17;58.41;100765.16;5158037;27;855;-53
2021/09/21 00:13:08;;;;;;;;;;;;;;;21.49;57.18;100766.22;5158177;27;751;-53
2021/09/21 00:15:33;;;;;;;;;;;;;;;20.91;56.05;100769.50;5157858;27;800;-53
2021/09/21 00:17:58;;;;;;;;;;;;;;;20.28;53.53;100772.41;5157604;27;1184;-53
2021/09/21 00:20:24;;;;;;;;;;;;;;;19.61;51.12;100778.78;5157494;27;799;-53
2021/09/21 00:22:49;;;;;;;;;;;;;;;19.11;48.96;100776.28;5157088;27;969;-53
2021/09/21 00:25:15;;;;;;;;;;;;;;;18.56;47.82;100768.19;5157920;27;1901;-54
2021/09/21 00:27:41;;;;;;;;;;;;;;;18.40;47.10;100761.97;5157662;27;767;-53
2021/09/21 00:30:09;;;;;;;;;;;;;;;18.96;49.83;100768.19;5139276;27;1199;-57
2021/09/21 00:32:34;;;;;;;;;;;;;;;19.31;52.82;100774.44;5157434;27;830;-52
2021/09/21 00:35:00;;;;;;;;;;;;;;;19.65;54.93;100777.06;5157794;27;783;-56
2021/09/21 00:37:25;;;;;;;;;;;;;;;19.91;56.19;100781.47;5156775;27;976;-52
2021/09/21 00:39:51;;;;;;;;;;;;;;;20.48;56.15;100787.00;5157832;27;811;-51
2021/09/21 00:42:22;;;;;;;;;;;;;;;20.67;56.95;100784.25;5157756;27;846;-52
2021/09/21 00:44:52;;;;;;;;;;;;;;;20.62;58.03;100787.91;5157106;27;1968;-51
2021/09/21 00:47:18;;;;;;;;;;;;;;;20.87;57.98;100796.13;5157051;27;798;-56
2021/09/21 00:49:43;;;;;;;;;;;;;;;21.02;57.93;100788.38;5157606;27;806;-53
2021/09/21 00:52:08;;;;;;;;;;;;;;;21.32;57.42;100786.19;5156997;27;902;-53
2021/09/21 00:54:34;;;;;;;;;;;;;;;21.29;58.04;100783.19;5138890;27;838;-54
2021/09/21 00:56:59;;;;;;;;;;;;;;;21.27;58.01;100779.94;5157574;27;756;-55
2021/09/21 00:59:25;;;;;;;;;;;;;;;21.18;56.34;100785.31;5138101;27;815;-53
2021/09/21 01:01:50;;;;;;;;;;;;;;;20.76;53.80;100790.78;5157400;27;755;-53
2021/09/21 01:04:15;;;;;;;;;;;;;;;19.90;51.57;100790.88;5157317;27;1909;-53
2021/09/21 01:06:41;;;;;;;;;;;;;;;19.28;49.94;100791.56;5156681;27;953;-54
2021/09/21 01:09:19;;;;;;;;;;;;;;;18.68;48.04;100798.13;5157329;27;746;-54
2021/09/21 01:11:48;;;;;;;;;;;;;;;18.34;47.68;100796.16;5157166;27;818;-49
2021/09/21 01:14:13;;;;;;;;;;;;;;;18.65;50.19;100793.19;5156727;27;783;-53
2021/09/21 01:16:39;;;;;;;;;;;;;;;19.13;53.04;100790.59;5157518;27;1002;-57
2021/09/21 01:19:04;;;;;;;;;;;;;;;19.53;54.88;100795.16;5157167;27;838;-53
2021/09/21 01:21:30;;;;;;;;;;;;;;;19.80;56.24;100806.44;5156244;27;1008;-53
2021/09/21 01:23:55;;;;;;;;;;;;;;;20.11;57.17;100796.97;5157466;27;1909;-55
2021/09/21 01:26:21;;;;;;;;;;;;;;;20.57;57.18;100803.75;5157004;27;826;-54
2021/09/21 01:28:47;;;;;;;;;;;;;;;20.76;57.33;100796.28;5156331;27;1150;-51
2021/09/21 01:31:12;;;;;;;;;;;;;;;20.99;57.47;100793.69;5157284;27;829;-53
2021/09/21 01:33:39;;;;;;;;;;;;;;;21.07;57.76;100800.47;5159480;27;854;-53
2021/09/21 01:36:04;;;;;;;;;;;;;;;21.26;57.72;100815.03;5160395;27;1028;-50
2021/09/21 01:38:30;;;;;;;;;;;;;;;21.22;58.22;100813.19;5160869;27;746;-53
2021/09/21 01:40:55;;;;;;;;;;;;;;;21.43;57.51;100808.91;5161152;27;811;-53
2021/09/21 01:43:20;;;;;;;;;;;;;;;21.12;56.62;100823.31;5160403;27;1970;-54
2021/09/21 01:45:49;;;;;;;;;;;;;;;20.49;54.54;100819.88;5160968;27;795;-53
2021/09/21 01:48:14;;;;;;;;;;;;;;;19.95;51.14;100824.75;5160676;27;794;-53
2021/09/21 01:51:01;;;;;;;;;;;;;;;19.06;50.21;100839.72;5160493;27;830;-56
2021/09/21 01:58:59;;;;;;;;;;;;;;;19.09;51.88;100844.66;5160288;27;795;-53
2021/09/21 02:01:25;;;;;;;;;;;;;;;19.66;53.56;100833.88;5160982;27;759;-53
2021/09/21 02:03:52;;;;;;;;;;;;;;;20.02;55.06;100852.00;5160301;27;1971;-55
2021/09/21 02:06:17;;;;;;;;;;;;;;;20.11;56.90;100858.50;5159730;27;1008;-55
2021/09/21 02:08:43;;;;;;;;;;;;;;;20.32;57.64;100861.00;5160268;27;759;-54
2021/09/21 02:11:08;;;;;;;;;;;;;;;20.97;56.80;100859.50;5160491;27;815;-57
2021/09/21 02:13:34;;;;;;;;;;;;;;;20.97;57.41;100862.28;5160040;27;843;-55
2021/09/21 02:15:59;;;;;;;;;;;;;;;21.29;57.19;100866.16;5159889;27;975;-56
2021/09/21 02:18:24;;;;;;;;;;;;;;;21.31;57.60;100855.63;5160235;27;835;-54
2021/09/21 02:20:50;;;;;;;;;;;;;;;21.43;57.67;100864.25;5159797;27;850;-55
2021/09/21 02:23:15;;;;;;;;;;;;;;;21.58;57.63;100856.84;5159742;27;1980;-52
2021/09/21 02:25:41;;;;;;;;;;;;;;;21.62;57.49;100866.16;5160041;27;849;-53
2021/09/21 02:28:06;;;;;;;;;;;;;;;21.34;57.44;100860.56;5159909;27;826;-54
2021/09/21 02:30:32;;;;;;;;;;;;;;;21.02;56.29;100876.03;5159737;27;808;-54
2021/09/21 02:32:58;;;;;;;;;;;;;;;20.29;54.12;100887.25;5160156;27;815;-57
2021/09/21 02:35:25;;;;;;;;;;;;;;;19.64;51.66;100898.75;5159582;27;743;-52
2021/09/21 02:37:50;;;;;;;;;;;;;;;19.27;49.08;100905.72;5159984;27;1016;-55
2021/09/21 02:40:16;;;;;;;;;;;;;;;18.85;47.90;100920.88;5172571;27;1531;-53
2021/09/21 02:42:42;;;;;;;;;;;;;;;18.87;50.27;100918.66;5172966;27;787;-52
2021/09/21 02:45:07;;;;;;;;;;;;;;;19.63;52.11;100928.28;5159602;27;1938;-57
2021/09/21 02:47:33;;;;;;;;;;;;;;;19.74;54.79;100934.53;5160175;27;870;-54
2021/09/21 02:49:58;;;;;;;;;;;;;;;20.22;55.76;100933.75;5169538;27;765;-55
2021/09/21 02:52:24;;;;;;;;;;;;;;;20.63;56.18;100948.97;5168069;27;960;-53
2021/09/21 02:54:49;;;;;;;;;;;;;;;20.68;57.38;100955.28;5159415;27;759;-53
2021/09/21 02:57:14;;;;;;;;;;;;;;;20.90;57.57;100966.88;5168517;27;779;-54
2021/09/21 02:59:40;;;;;;;;;;;;;;;21.13;57.28;100957.69;5159319;27;826;-55
2021/09/21 03:02:05;;;;;;;;;;;;;;;21.19;57.58;100959.22;5159604;27;834;-53
2021/09/21 03:04:35;;;;;;;;;;;;;;;21.44;57.33;100959.94;5158807;27;1913;-53
2021/09/21 03:07:13;;;;;;;;;;;;;;;21.40;57.82;100961.66;5158767;27;997;-56
2021/09/21 03:17:28;;;;;;;;;;;;;;;19.66;50.48;100984.81;5162774;27;1488;-53
2021/09/21 03:19:54;;;;;;;;;;;;;;;18.77;49.87;100983.72;5158244;27;802;-52
2021/09/21 03:22:19;;;;;;;;;;;;;;;18.80;47.67;100980.41;5159700;27;1397;-51
2021/09/21 03:24:45;;;;;;;;;;;;;;;18.68;49.43;100990.94;5158987;27;1980;-48
2021/09/21 03:27:10;;;;;;;;;;;;;;;19.20;51.92;101001.72;5140096;27;807;-51
2021/09/21 03:29:36;;;;;;;;;;;;;;;19.80;53.53;101007.88;5159110;27;755;-50
2021/09/21 03:32:01;;;;;;;;;;;;;;;19.86;55.84;101010.59;5174681;27;1258;-51
2021/09/21 03:34:27;;;;;;;;;;;;;;;20.29;56.34;101014.28;5178872;27;809;-54
2021/09/21 03:36:52;;;;;;;;;;;;;;;20.58;57.09;101009.81;5171446;27;952;-49
2021/09/21 03:39:18;;;;;;;;;;;;;;;20.86;57.08;101013.66;5158847;27;866;-50
2021/09/21 03:41:43;;;;;;;;;;;;;;;21.05;57.45;101010.06;5157129;27;1006;-53
2021/09/21 03:44:09;;;;;;;;;;;;;;;21.23;57.65;101016.72;5178380;27;1913;-52
2021/09/21 03:46:34;;;;;;;;;;;;;;;21.45;57.48;101024.41;5179635;27;798;-53
2021/09/21 03:48:59;;;;;;;;;;;;;;;21.36;58.05;101014.03;5178902;27;794;-54
2021/09/21 03:51:25;;;;;;;;;;;;;;;21.37;57.85;101035.00;5162164;27;894;-54
2021/09/21 03:53:50;;;;;;;;;;;;;;;20.87;57.18;101042.09;5158633;27;871;-53
2021/09/21 03:56:16;;;;;;;;;;;;;;;20.71;53.77;101047.00;5157247;27;811;-54
2021/09/21 03:58:41;;;;;;;;;;;;;;;19.86;51.47;101050.03;5158022;27;814;-54
2021/09/21 04:01:06;;;;;;;;;;;;;;;19.38;49.52;101061.69;5157195;27;890;-48
2021/09/21 04:03:32;;;;;;;;;;;;;;;18.84;48.47;101071.56;5157790;27;1917;-51
2021/09/21 04:05:57;;;;;;;;;;;;;;;18.79;48.80;101083.44;5158275;27;790;-55
2021/09/21 04:08:23;;;;;;;;;;;;;;;19.28;51.72;101083.81;5158037;27;961;-52
2021/09/21 04:10:48;;;;;;;;;;;;;;;19.45;52.91;101078.72;5157823;27;830;-51
2021/09/21 04:13:13;;;;;;;;;;;;;;;19.47;53.15;101093.06;5157535;27;815;-54
2021/09/21 04:15:40;;;;;;;;;;;;;;;19.45;52.45;101087.00;5157910;27;843;-53
2021/09/21 04:18:08;;;;;;;;;;;;;;;19.32;52.55;101076.59;5157772;27;1148;-55
2021/09/21 04:20:33;;;;;;;;;;;;;;;19.41;52.93;101080.41;5157883;27;786;-44
2021/09/21 04:22:58;;;;;;;;;;;;;;;19.33;53.43;101094.78;5157386;27;957;-61
2021/09/21 04:25:24;;;;;;;;;;;;;;;19.40;53.81;101089.78;5157885;27;1902;-49
2021/09/21 04:27:49;;;;;;;;;;;;;;;19.46;53.89;101091.41;5157799;27;755;-50
2021/09/21 04:30:21;;;;;;;;;;;;;;;19.57;53.50;101097.69;5158197;27;728;-43
2021/09/21 04:32:46;;;;;;;;;;;;;;;19.61;53.85;101100.69;5158004;27;835;-44
2021/09/21 04:35:11;;;;;;;;;;;;;;;19.78;54.63;101106.66;5139316;27;803;-44
2021/09/21 04:37:37;;;;;;;;;;;;;;;19.70;56.62;101103.66;5157894;27;775;-48
2021/09/21 04:40:03;;;;;;;;;;;;;;;20.10;57.07;101112.78;5157826;27;838;-51
2021/09/21 04:42:29;;;;;;;;;;;;;;;20.44;57.39;101101.69;5158321;27;788;-52
2021/09/21 04:44:54;;;;;;;;;;;;;;;20.61;57.73;101112.28;5157622;27;1901;-49
2021/09/21 04:47:20;;;;;;;;;;;;;;;20.94;57.60;101106.13;5157710;27;810;-53
2021/09/21 04:49:45;;;;;;;;;;;;;;;21.10;57.54;101104.00;5157818;27;821;-50
2021/09/21 04:52:11;;;;;;;;;;;;;;;21.43;57.14;101107.69;5157719;27;774;-52
2021/09/21 04:54:36;;;;;;;;;;;;;;;21.17;58.17;101124.63;5157792;27;738;-51
2021/09/21 04:57:01;;;;;;;;;;;;;;;21.25;57.75;101116.78;5157600;27;759;-44
2021/09/21 04:59:27;;;;;;;;;;;;;;;20.96;55.89;101126.84;5157920;27;858;-49
2021/09/21 05:01:52;;;;;;;;;;;;;;;19.99;54.15;101118.38;5157596;27;862;-51
2021/09/21 05:04:18;;;;;;;;;;;;;;;19.52;51.15;101128.06;5157436;27;1974;-53
2021/09/21 05:06:43;;;;;;;;;;;;;;;18.86;49.20;101113.47;5157746;27;826;-51
2021/09/21 05:09:13;;;;;;;;;;;;;;;18.59;48.28;101114.63;5160970;27;806;-52
2021/09/21 05:11:38;;;;;;;;;;;;;;;19.01;50.53;101106.25;5161825;27;822;-48
2021/09/21 05:14:04;;;;;;;;;;;;;;;19.44;53.18;101115.69;5161752;27;759;-52
2021/09/21 05:16:29;;;;;;;;;;;;;;;19.75;55.24;101125.72;5161841;27;1002;-53
2021/09/21 05:18:55;;;;;;;;;;;;;;;19.95;56.55;101122.84;5161751;27;858;-54
2021/09/21 05:21:20;;;;;;;;;;;;;;;20.31;57.21;101143.78;5161965;27;814;-51
2021/09/21 05:23:45;;;;;;;;;;;;;;;20.46;57.81;101138.13;5161444;27;1909;-50
2021/09/21 05:26:11;;;;;;;;;;;;;;;20.63;58.08;101143.19;5160579;27;1075;-56
2021/09/21 05:28:36;;;;;;;;;;;;;;;20.88;57.83;101151.56;5161912;27;739;-50
2021/09/21 05:31:02;;;;;;;;;;;;;;;21.11;57.36;101145.19;5161453;27;782;-49
2021/09/21 05:33:27;;;;;;;;;;;;;;;21.41;56.77;101156.97;5161340;27;932;-53
2021/09/21 05:35:53;;;;;;;;;;;;;;;21.34;57.28;101175.88;5161334;27;806;-56
2021/09/21 05:38:18;;;;;;;;;;;;;;;21.40;56.98;101173.88;5156926;27;1277;-46
2021/09/21 05:40:44;;;;;;;;;;;;;;;21.01;56.87;101189.53;5159930;27;1310;-46
2021/09/21 05:43:09;;;;;;;;;;;;;;;20.34;54.75;101193.75;5160150;27;1981;-50
2021/09/21 05:45:35;;;;;;;;;;;;;;;19.77;51.92;101207.09;5160393;27;1109;-46
2021/09/21 05:48:00;;;;;;;;;;;;;;;19.29;49.74;101212.28;5161231;27;818;-47
2021/09/21 05:50:25;;;;;;;;;;;;;;;18.64;48.52;101204.69;5160629;27;684;-45
2021/09/21 05:52:51;;;;;;;;;;;;;;;18.55;49.57;101214.59;5159873;27;961;-43
2021/09/21 05:55:16;;;;;;;;;;;;;;;19.36;51.47;101217.50;5161206;27;811;-45
2021/09/21 05:57:44;;;;;;;;;;;;;;;19.63;54.01;101222.63;5160600;27;1117;-44
2021/09/21 06:00:10;;;;;;;;;;;;;;;19.87;55.67;101219.22;5160715;27;854;-44
2021/09/21 06:02:38;;;;;;;;;;;;;;;20.29;56.44;101228.88;5160118;27;762;-44
2021/09/21 06:05:04;;;;;;;;;;;;;;;20.60;56.95;101239.66;5160398;27;1913;-44
2021/09/21 06:07:30;;;;;;;;;;;;;;;20.72;57.38;101242.91;5159948;27;945;-57
2021/09/21 06:09:55;;;;;;;;;;;;;;;21.10;56.80;101245.84;5159945;27;931;-47
2021/09/21 06:12:20;;;;;;;;;;;;;;;21.14;57.18;101244.16;5160346;27;810;-48
2021/09/21 06:14:46;;;;;;;;;;;;;;;21.17;57.49;101251.84;5160179;27;810;-50
2021/09/21 06:17:11;;;;;;;;;;;;;;;21.33;57.38;101246.97;5159819;27;1018;-51
2021/09/21 06:19:37;;;;;;;;;;;;;;;21.35;57.74;101249.47;5159518;27;827;-48
2021/09/21 06:22:02;;;;;;;;;;;;;;;21.15;57.75;101261.56;5159791;27;973;-46
2021/09/21 06:24:28;;;;;;;;;;;;;;;20.65;56.07;101261.72;5159340;27;1909;-49
2021/09/21 06:26:53;;;;;;;;;;;;;;;20.12;52.84;101252.19;5160203;27;799;-47
2021/09/21 06:29:18;;;;;;;;;;;;;;;19.67;50.08;101256.81;5160181;27;889;-44
2021/09/21 06:31:44;;;;;;;;;;;;;;;19.02;48.62;101265.81;5159353;27;866;-44
2021/09/21 06:34:09;;;;;;;;;;;;;;;18.43;48.50;101257.00;5159675;27;1164;-48
2021/09/21 06:36:35;;;;;;;;;;;;;;;19.15;50.15;101272.69;5159857;27;969;-44
2021/09/21 06:39:00;;;;;;;;;;;;;;;19.52;52.78;101265.13;5159397;27;827;-48
2021/09/21 06:41:26;;;;;;;;;;;;;;;19.79;53.21;101276.63;5159989;27;762;-48
2021/09/21 06:43:51;;;;;;;;;;;;;;;19.66;53.33;101278.06;5141226;27;1988;-45
2021/09/21 06:46:17;;;;;;;;;;;;;;;19.55;52.56;101283.91;5158912;27;743;-44
2021/09/21 06:48:42;;;;;;;;;;;;;;;19.09;52.59;101280.16;5159965;27;826;-46
2021/09/21 06:51:08;;;;;;;;;;;;;;;19.14;51.63;101274.63;5160167;27;965;-46
2021/09/21 06:53:33;;;;;;;;;;;;;;;19.05;52.32;101273.53;5158816;27;866;-46
2021/09/21 06:55:59;;;;;;;;;;;;;;;19.34;51.79;101280.38;5159681;27;794;-46
2021/09/21 06:58:24;;;;;;;;;;;;;;;19.44;52.19;101292.19;5140453;27;871;-44
2021/09/21 07:00:49;;;;;;;;;;;;;;;19.29;53.34;101289.47;5159059;27;747;-47
2021/09/21 07:03:15;;;;;;;;;;;;;;;19.53;54.40;101299.91;5159529;27;1988;-46
2021/09/21 07:05:40;;;;;;;;;;;;;;;19.95;55.33;101296.72;5159272;27;799;-46
2021/09/21 07:08:06;;;;;;;;;;;;;;;20.18;55.90;101297.97;5158471;27;969;-44
2021/09/21 07:10:31;;;;;;;;;;;;;;;20.32;57.20;101294.56;5159248;27;775;-44
2021/09/21 07:12:57;;;;;;;;;;;;;;;20.55;57.58;101294.97;5159866;27;759;-46
2021/09/21 07:15:23;;;;;;;;;;;;;;;20.66;57.73;101308.44;5158560;27;798;-46
2021/09/21 07:17:52;;;;;;;;;;;;;;;20.86;57.75;101298.34;5159324;27;1055;-43
2021/09/21 07:20:17;;;;;;;;;;;;;;;21.12;57.16;101309.97;5159072;27;778;-51
2021/09/21 07:22:42;;;;;;;;;;;;;;;20.96;58.15;101314.00;5157875;27;964;-45
2021/09/21 07:25:08;;;;;;;;;;;;;;;21.28;57.21;101315.34;5158640;27;1925;-44
2021/09/21 07:27:34;;;;;;;;;;;;;;;21.20;56.36;101314.88;5159377;27;771;-47
2021/09/21 07:29:59;;;;;;;;;;;;;;;20.72;54.48;101313.91;5158113;27;775;-56
2021/09/21 07:32:24;;;;;;;;;;;;;;;19.94;51.92;101297.00;5158781;27;793;-48
2021/09/21 07:34:51;;;;;;;;;;;;;;;19.08;50.87;101303.31;5140929;27;1126;-42
2021/09/21 07:37:16;;;;;;;;;;;;;;;18.79;48.87;101298.34;5136950;27;933;-44
2021/09/21 07:39:42;;;;;;;;;;;;;;;18.68;49.52;101299.44;5138114;27;854;-43
2021/09/21 07:42:07;;;;;;;;;;;;;;;19.19;51.84;101306.06;5137886;27;873;-48
2021/09/21 07:44:33;;;;;;;;;;;;;;;19.65;53.85;101319.72;5136962;27;1959;-45
2021/09/21 07:46:58;;;;;;;;;;;;;;;19.93;55.41;101309.16;5137914;27;811;-49
2021/09/21 07:49:24;;;;;;;;;;;;;;;20.26;56.41;101317.78;5137516;27;763;-54
2021/09/21 07:51:49;;;;;;;;;;;;;;;20.57;56.54;101315.66;5136939;27;958;-47
2021/09/21 07:54:15;;;;;;;;;;;;;;;20.80;56.78;101324.38;5137495;27;818;-46
2021/09/21 07:56:40;;;;;;;;;;;;;;;20.97;57.15;101319.25;5137456;27;822;-47
2021/09/21 07:59:06;;;;;;;;;;;;;;;21.12;57.21;101323.78;5137505;27;531;-45
2021/09/21 08:01:31;;;;;;;;;;;;;;;21.24;57.24;101325.34;5137462;27;779;-46
2021/09/21 08:03:57;;;;;;;;;;;;;;;21.46;57.05;101322.91;5137230;27;1910;-47
2021/09/21 08:06:23;;;;;;;;;;;;;;;21.66;56.40;101315.53;5136669;27;1012;-46
2021/09/21 08:08:48;;;;;;;;;;;;;;;21.26;56.81;101318.41;5137433;27;768;-50
2021/09/21 08:11:14;;;;;;;;;;;;;;;20.61;54.83;101327.78;5137272;27;835;-48
2021/09/21 08:13:39;;;;;;;;;;;;;;;20.18;51.44;101324.75;5136867;27;831;-53
2021/09/21 08:16:04;;;;;;;;;;;;;;;19.28;50.13;101320.94;5139768;27;986;-54
2021/09/21 08:18:30;;;;;;;;;;;;;;;18.73;48.76;101321.50;5157788;27;755;-57
2021/09/21 08:20:55;;;;;;;;;;;;;;;18.59;49.26;101323.13;5157675;27;811;-55
2021/09/21 08:23:21;;;;;;;;;;;;;;;19.17;52.06;101333.06;5157294;27;1905;-44
2021/09/21 08:25:46;;;;;;;;;;;;;;;19.63;53.90;101338.50;5157571;27;794;-49
2021/09/21 08:28:12;;;;;;;;;;;;;;;20.03;55.02;101336.69;5157540;27;811;-50
2021/09/21 08:30:37;;;;;;;;;;;;;;;20.10;55.63;101351.00;5155327;27;1098;-48
2021/09/21 08:33:02;;;;;;;;;;;;;;;19.80;55.68;101338.19;5157362;27;1086;-45
2021/09/21 08:35:28;;;;;;;;;;;;;;;19.81;54.40;101343.44;5157391;27;810;-45
2021/09/21 08:37:53;;;;;;;;;;;;;;;19.60;53.51;101336.28;5156790;27;997;-52
2021/09/21 08:40:19;;;;;;;;;;;;;;;19.53;52.83;101338.50;5137705;27;1006;-59
2021/09/21 08:42:44;;;;;;;;;;;;;;;19.39;52.43;101324.47;5157763;27;790;-45
2021/09/21 08:45:10;;;;;;;;;;;;;;;19.43;52.88;101334.69;5156937;27;1921;-50
2021/09/21 08:47:37;;;;;;;;;;;;;;;19.61;54.34;101336.00;5157516;27;839;-47
2021/09/21 08:50:04;;;;;;;;;;;;;;;19.94;55.63;101341.19;5157590;27;798;-48
2021/09/21 08:52:33;;;;;;;;;;;;;;;20.21;56.21;101329.69;5156535;27;1008;-49
2021/09/21 08:54:58;;;;;;;;;;;;;;;20.47;56.74;101335.91;5157405;27;858;-51
2021/09/21 08:57:25;;;;;;;;;;;;;;;20.51;57.28;101336.16;5157394;27;806;-45
2021/09/21 08:59:52;;;;;;;;;;;;;;;20.74;57.58;101336.59;5156948;27;798;-46
2021/09/21 09:02:17;;;;;;;;;;;;;;;21.09;56.93;101335.44;5157364;27;1029;-45
2021/09/21 09:04:43;;;;;;;;;;;;;;;21.14;57.22;101343.69;5157289;27;1917;-49
2021/09/21 09:07:08;;;;;;;;;;;;;;;21.44;56.72;101325.13;5137582;27;1273;-56
2021/09/21 09:09:35;;;;;;;;;;;;;;;21.52;56.30;101337.53;5157837;27;813;-43
2021/09/21 09:12:01;;;;;;;;;;;;;;;21.32;54.96;101338.53;5157329;27;854;-57
2021/09/21 09:14:28;;;;;;;;;;;;;;;20.35;53.52;101338.19;5156704;27;874;-57
2021/09/21 09:16:54;;;;;;;;;;;;;;;19.83;51.07;101349.47;5156951;27;1006;-56
2021/09/21 09:19:20;;;;;;;;;;;;;;;19.27;49.14;101346.84;5157102;27;759;-56
2021/09/21 09:21:46;;;;;;;;;;;;;;;18.58;48.17;101347.09;5156098;27;961;-57
2021/09/21 09:24:12;;;;;;;;;;;;;;;18.68;49.30;101351.78;5157056;27;1913;-55
2021/09/21 09:26:39;;;;;;;;;;;;;;;19.31;52.05;101347.94;5157052;27;858;-42
2021/09/21 09:29:09;;;;;;;;;;;;;;;19.51;54.76;101340.75;5156673;27;842;-57
2021/09/21 09:31:34;;;;;;;;;;;;;;;19.86;55.87;101353.59;5157515;27;735;-50
2021/09/21 09:34:10;;;;;;;;;;;;;;;20.34;56.19;101358.63;5157103;27;1118;-56
2021/09/21 09:36:43;;;;;;;;;;;;;;;20.48;56.91;101365.19;5156198;27;969;-57
2021/09/21 09:39:08;;;;;;;;;;;;;;;20.54;57.61;101359.59;5157177;27;762;-57
2021/09/21 09:41:35;;;;;;;;;;;;;;;20.78;57.76;101363.34;5157006;27;731;-57
2021/09/21 09:44:10;;;;;;;;;;;;;;;21.17;56.88;101365.22;5156369;27;1917;-57
2021/09/21 09:46:46;;;;;;;;;;;;;;;21.36;56.89;101367.25;5156804;27;771;-53
2021/09/21 09:49:11;;;;;;;;;;;;;;;21.40;57.08;101371.09;5156972;27;886;-58
2021/09/21 09:51:45;;;;;;;;;;;;;;;21.60;56.50;101378.41;5156164;27;985;-57
2021/09/21 09:54:10;;;;;;;;;;;;;;;21.45;56.29;101373.00;5158647;27;763;-58
2021/09/21 09:56:36;;;;;;;;;;;;;;;20.55;55.46;101381.41;5160485;27;743;-55
2021/09/21 09:59:01;;;;;;;;;;;;;;;19.94;52.73;101383.38;5141620;27;823;-56
2021/09/21 10:01:26;;;;;;;;;;;;;;;19.24;50.79;101386.00;5142408;27;858;-57
2021/09/21 10:03:52;;;;;;;;;;;;;;;18.72;48.56;101387.84;5160342;27;1913;-46
2021/09/21 10:06:17;;;;;;;;;;;;;;;18.50;47.82;101385.38;5141245;27;1004;-57
2021/09/21 10:08:44;;;;;;;;;;;;;;;18.87;50.52;101387.06;5160818;27;799;-44
2021/09/21 10:11:09;;;;;;;;;;;;;;;19.26;53.23;101395.63;5160368;27;788;-51
2021/09/21 10:13:35;;;;;;;;;;;;;;;19.59;55.12;101403.63;5141896;27;759;-51
2021/09/21 10:16:00;;;;;;;;;;;;;;;19.74;56.78;101400.81;5160284;27;1081;-48
2021/09/21 10:18:27;;;;;;;;;;;;;;;19.86;58.11;101399.72;5141630;27;792;-52
2021/09/21 10:20:56;;;;;;;;;;;;;;;19.94;59.22;101396.38;5160042;27;730;-47
2021/09/21 10:23:22;;;;;;;;;;;;;;;20.18;59.30;101405.66;5159555;27;1909;-46
2021/09/21 10:25:49;;;;;;;;;;;;;;;20.49;58.83;101402.72;5141660;27;818;-47
2021/09/21 10:28:18;;;;;;;;;;;;;;;20.58;59.39;101402.13;5159697;27;806;-44
2021/09/21 10:30:53;;;;;;;;;;;;;;;20.69;59.19;101398.22;5160261;27;751;-45
2021/09/21 10:33:19;;;;;;;;;;;;;;;20.84;59.27;101408.34;5155249;27;1082;-44
2021/09/21 10:35:44;;;;;;;;;;;;;;;20.84;59.11;101400.06;5139206;27;724;-46
2021/09/21 10:38:12;;;;;;;;;;;;;;;20.61;58.83;101407.13;5139261;27;945;-47
2021/09/21 10:40:42;;;;;;;;;;;;;;;20.00;56.60;101398.00;5139048;27;759;-44
2021/09/21 10:43:08;;;;;;;;;;;;;;;19.44;53.65;101385.97;5138741;27;827;-53
2021/09/21 10:45:40;;;;;;;;;;;;;;;19.15;50.65;101399.50;5139039;27;1918;-46
2021/09/21 10:48:05;;;;;;;;;;;;;;;18.48;49.52;101402.13;5138590;27;875;-54
2021/09/21 10:50:39;;;;;;;;;;;;;;;18.55;49.16;101407.38;5138604;27;759;-47
2021/09/21 10:53:08;;;;;;;;;;;;;;;18.87;52.08;101398.09;5138690;27;997;-46
2021/09/21 10:55:35;;;;;;;;;;;;;;;19.24;54.90;101406.13;5138890;27;815;-47
2021/09/21 10:58:04;;;;;;;;;;;;;;;19.42;56.78;101403.88;5138334;27;744;-55
2021/09/21 11:00:31;;;;;;;;;;;;;;;19.76;57.53;101395.03;5138856;27;779;-46
2021/09/21 11:02:56;;;;;;;;;;;;;;;19.92;58.62;101390.28;5138514;27;850;-47
2021/09/21 11:05:26;;;;;;;;;;;;;;;20.14;58.99;101401.81;5138561;27;1909;-45
2021/09/21 11:07:52;;;;;;;;;;;;;;;20.14;59.72;101403.75;5137938;27;961;-48
2021/09/21 11:10:20;;;;;;;;;;;;;;;20.37;59.73;101416.06;5138556;27;782;-50
2021/09/21 11:12:49;;;;;;;;;;;;;;;20.46;59.93;101408.00;5138435;27;753;-45
2021/09/21 11:15:14;;;;;;;;;;;;;;;20.73;59.16;101413.13;5138264;27;764;-46
2021/09/21 11:17:40;;;;;;;;;;;;;;;20.82;59.08;101408.66;5132853;27;1026;-52
2021/09/21 11:20:05;;;;;;;;;;;;;;;20.65;58.79;101405.41;5138124;27;731;-51
2021/09/21 11:22:31;;;;;;;;;;;;;;;20.23;56.68;101415.03;5136742;27;1032;-52
2021/09/21 11:25:01;;;;;;;;;;;;;;;19.60;54.40;101402.50;5138206;27;1905;-46
2021/09/21 11:27:27;;;;;;;;;;;;;;;19.02;51.76;101406.41;5137988;27;822;-44
2021/09/21 11:29:58;;;;;;;;;;;;;;;18.64;49.41;101403.00;5137849;27;775;-45
2021/09/21 11:32:24;;;;;;;;;;;;;;;18.42;49.27;101401.28;5138182;27;755;-49
2021/09/21 11:34:57;;;;;;;;;;;;;;;18.61;51.17;101406.31;5136420;27;1123;-48
2021/09/21 11:37:22;;;;;;;;;;;;;;;19.01;54.49;101407.50;5137531;27;956;-43
2021/09/21 11:39:48;;;;;;;;;;;;;;;19.41;56.19;101403.06;5137827;27;794;-45
2021/09/21 11:42:27;;;;;;;;;;;;;;;19.68;57.44;101399.16;5137892;27;850;-47
2021/09/21 11:45:02;;;;;;;;;;;;;;;19.89;58.53;101393.63;5137588;27;1901;-53
2021/09/21 11:47:35;;;;;;;;;;;;;;;20.01;59.28;101394.13;5137959;27;854;-47
2021/09/21 11:50:00;;;;;;;;;;;;;;;20.25;59.21;101399.00;5137125;27;780;-45
2021/09/21 11:52:26;;;;;;;;;;;;;;;20.28;59.60;101392.91;5137030;27;1004;-44
2021/09/21 12:19:36;;;;;;;;;;;;;;;18.92;52.96;101376.09;5157445;27;1214;-49
2021/09/21 12:22:02;;;;;;;;;;;;;;;19.28;55.83;101371.38;5138965;27;1120;-55
2021/09/21 12:24:30;;;;;;;;;;;;;;;19.48;57.25;101370.50;5157866;27;1977;-59
2021/09/21 12:27:03;;;;;;;;;;;;;;;19.77;58.44;101360.81;5157808;27;763;-51
2021/09/21 12:29:31;;;;;;;;;;;;;;;20.12;58.53;101361.81;5157719;27;747;-57
2021/09/21 12:31:56;;;;;;;;;;;;;;;20.08;59.42;101360.72;5157390;27;837;-57
2021/09/21 12:34:22;;;;;;;;;;;;;;;20.33;59.51;101362.53;5157468;27;1161;-55
2021/09/21 12:36:52;;;;;;;;;;;;;;;20.54;59.10;101367.91;5139172;27;1142;-59
2021/09/21 12:39:18;;;;;;;;;;;;;;;20.95;58.19;101370.41;5139777;27;834;-54
2021/09/21 12:41:45;;;;;;;;;;;;;;;20.88;58.45;101362.44;5157587;27;786;-56
2021/09/21 12:44:11;;;;;;;;;;;;;;;20.62;57.99;101378.34;5157196;27;1968;-57
2021/09/21 12:46:56;;;;;;;;;;;;;;;19.92;56.17;101371.81;5157562;27;850;-57
2021/09/21 12:49:22;;;;;;;;;;;;;;;19.28;53.70;101359.53;5157130;27;810;-53
2021/09/21 12:51:48;;;;;;;;;;;;;;;18.85;51.05;101361.72;5156978;27;945;-57
2021/09/21 12:54:17;;;;;;;;;;;;;;;18.53;49.58;101357.28;5157502;27;754;-55
2021/09/21 12:56:50;;;;;;;;;;;;;;;18.69;51.67;101352.59;5156111;27;976;-52
2021/09/21 12:59:21;;;;;;;;;;;;;;;19.14;54.77;101359.28;5157209;27;839;-57
2021/09/21 13:01:47;;;;;;;;;;;;;;;19.48;56.81;101370.50;5157464;27;889;-57
2021/09/21 13:04:12;;;;;;;;;;;;;;;19.74;57.73;101367.72;5157059;27;1901;-49
2021/09/21 13:06:38;;;;;;;;;;;;;;;19.96;58.36;101370.16;5156917;27;1024;-57
2021/09/21 13:09:04;;;;;;;;;;;;;;;19.99;59.22;101366.81;5157373;27;922;-55
2021/09/21 13:11:29;;;;;;;;;;;;;;;20.30;59.16;101365.81;5156743;27;751;-57
2021/09/21 13:13:55;;;;;;;;;;;;;;;20.46;59.25;101367.41;5157156;27;501;-49
2021/09/21 13:16:20;;;;;;;;;;;;;;;20.66;58.72;101366.44;5157312;27;767;-48
2021/09/21 13:18:47;;;;;;;;;;;;;;;20.78;58.67;101362.53;5156815;27;857;-60
2021/09/21 13:21:13;;;;;;;;;;;;;;;20.76;58.64;101360.06;5156485;27;1018;-53
2021/09/21 13:23:38;;;;;;;;;;;;;;;20.42;57.84;101366.31;5157074;27;1909;-48
2021/09/21 13:26:04;;;;;;;;;;;;;;;19.80;55.72;101361.09;5156634;27;735;-50
2021/09/21 13:28:29;;;;;;;;;;;;;;;19.26;53.58;101359.78;5157440;27;811;-48